createdAt,value
2022-10-23T00:00:12.371Z,4.96
2022-10-23T00:00:59.332Z,4.96
2022-10-23T00:01:45.991Z,4.88
2022-10-23T00:02:32.410Z,4.84
2022-10-23T00:03:18.876Z,5.03
2022-10-23T00:04:06.991Z,5.13
2022-10-23T00:04:53.377Z,5.06
2022-10-23T00:05:41.387Z,4.86
2022-10-23T00:06:29.642Z,4.81
2022-10-23T00:07:15.978Z,5.19
2022-10-23T00:08:02.412Z,5.18
2022-10-23T00:08:50.639Z,5.44
2022-10-23T00:09:37.048Z,5.21
2022-10-23T00:10:24.638Z,4.89
2022-10-23T00:11:13.225Z,4.74
2022-10-23T00:11:59.613Z,4.93
2022-10-23T00:12:46.917Z,4.78
2022-10-23T00:13:33.492Z,5.10
2022-10-23T00:14:22.861Z,4.72
2022-10-23T00:15:09.493Z,4.78
2022-10-23T00:15:55.855Z,5.10
2022-10-23T00:16:42.854Z,5.20
2022-10-23T00:17:32.596Z,5.07
2022-10-23T00:18:18.964Z,4.86
2022-10-23T00:19:06.071Z,5.09
2022-10-23T00:19:52.594Z,5.04
2022-10-23T00:20:39.051Z,4.87
2022-10-23T00:21:25.939Z,5.13
2022-10-23T00:22:12.618Z,5.45
2022-10-23T00:22:59.053Z,5.24
2022-10-23T00:23:45.889Z,5.21
2022-10-23T00:24:32.275Z,5.17
2022-10-23T00:25:18.809Z,4.86
2022-10-23T00:26:05.300Z,4.80
2022-10-23T00:26:51.836Z,5.40
2022-10-23T00:27:38.320Z,5.32
2022-10-23T00:28:25.049Z,5.12
2022-10-23T00:29:11.889Z,5.32
2022-10-23T00:29:58.305Z,5.36
2022-10-23T00:30:44.705Z,5.42
2022-10-23T00:31:31.998Z,5.20
2022-10-23T00:32:19.611Z,5.28
2022-10-23T00:33:06.163Z,5.35
2022-10-23T00:33:52.964Z,5.40
2022-10-23T00:34:39.355Z,5.20
2022-10-23T00:35:25.747Z,5.02
2022-10-23T00:36:14.050Z,5.20
2022-10-23T00:37:03.372Z,5.32
2022-10-23T00:37:49.794Z,5.43
2022-10-23T00:38:36.994Z,5.11
2022-10-23T00:39:23.363Z,5.57
2022-10-23T00:40:09.947Z,5.43
2022-10-23T00:40:56.432Z,5.08
2022-10-23T00:41:42.949Z,5.37
2022-10-23T00:42:32.430Z,5.40
2022-10-23T00:43:21.420Z,5.21
2022-10-23T00:44:10.226Z,5.16
2022-10-23T00:44:56.577Z,5.47
2022-10-23T00:45:43.688Z,5.49
2022-10-23T00:46:30.763Z,5.39
2022-10-23T00:47:18.269Z,5.30
2022-10-23T00:48:04.923Z,5.30
2022-10-23T00:48:51.959Z,5.20
2022-10-23T00:49:41.992Z,5.04
2022-10-23T00:50:32.694Z,4.86
2022-10-23T00:51:19.243Z,5.16
2022-10-23T00:52:08.242Z,5.18
2022-10-23T00:52:56.243Z,5.14
2022-10-23T00:53:43.438Z,5.13
2022-10-23T00:54:33.369Z,4.93
2022-10-23T00:55:21.851Z,4.84
2022-10-23T00:56:08.218Z,5.23
2022-10-23T00:56:56.273Z,5.50
2022-10-23T00:57:45.755Z,6.03
2022-10-23T00:58:32.168Z,5.21
2022-10-23T00:59:18.522Z,5.33
2022-10-23T01:00:05.520Z,5.42
2022-10-23T01:00:54.149Z,5.61
2022-10-23T01:01:40.971Z,5.24
2022-10-23T01:02:27.510Z,5.62
2022-10-23T01:03:16.363Z,5.57
2022-10-23T01:04:05.167Z,4.80
2022-10-23T01:04:52.071Z,4.69
2022-10-23T01:06:46.591Z,5.13
2022-10-23T01:07:39.173Z,5.10
2022-10-23T01:08:25.631Z,5.01
2022-10-23T01:09:30.987Z,5.35
2022-10-23T01:10:17.364Z,4.77
2022-10-23T01:11:26.674Z,4.67
2022-10-23T01:12:19.009Z,4.67
2022-10-23T01:13:24.485Z,4.73
2022-10-23T01:14:10.961Z,5.21
2022-10-23T01:15:12.310Z,4.55
2022-10-23T01:16:06.251Z,4.61
2022-10-23T01:16:55.609Z,4.49
2022-10-23T01:18:02.299Z,4.75
2022-10-23T01:18:54.804Z,4.96
2022-10-23T01:19:53.333Z,4.46
2022-10-23T01:20:43.693Z,4.35
2022-10-23T01:21:30.037Z,4.59
2022-10-23T01:22:32.511Z,4.63
2022-10-23T01:23:37.413Z,4.82
2022-10-23T01:24:23.806Z,4.51
2022-10-23T01:25:24.218Z,4.66
2022-10-23T01:26:22.752Z,4.92
2022-10-23T01:27:18.244Z,4.58
2022-10-23T01:28:09.504Z,4.78
2022-10-23T01:29:05.275Z,4.45
2022-10-23T01:29:59.304Z,4.21
2022-10-23T01:30:58.114Z,4.53
2022-10-23T01:31:52.030Z,4.49
2022-10-23T01:32:45.212Z,4.55
2022-10-23T01:33:37.816Z,4.60
2022-10-23T01:34:36.780Z,4.49
2022-10-23T01:35:30.652Z,4.19
2022-10-23T01:36:24.608Z,4.35
2022-10-23T01:37:21.472Z,4.50
2022-10-23T01:38:13.970Z,4.16
2022-10-23T01:39:06.138Z,4.25
2022-10-23T01:39:56.024Z,4.19
2022-10-23T01:40:52.989Z,4.44
2022-10-23T01:41:43.983Z,4.36
2022-10-23T01:42:40.218Z,4.35
2022-10-23T01:43:31.460Z,4.52
2022-10-23T01:44:37.155Z,4.32
2022-10-23T01:45:44.057Z,4.65
2022-10-23T01:46:35.660Z,4.02
2022-10-23T01:47:26.808Z,4.12
2022-10-23T01:48:27.343Z,4.50
2022-10-23T01:49:14.861Z,4.19
2022-10-23T01:50:04.903Z,4.33
2022-10-23T01:50:54.568Z,4.10
2022-10-23T01:51:45.053Z,4.17
2022-10-23T01:52:33.415Z,4.36
2022-10-23T01:53:22.880Z,4.53
2022-10-23T01:54:12.744Z,4.35
2022-10-23T01:55:01.381Z,4.66
2022-10-23T01:55:51.898Z,4.02
2022-10-23T01:56:46.589Z,4.24
2022-10-23T01:57:35.375Z,3.98
2022-10-23T01:58:24.117Z,3.83
2022-10-23T01:59:14.944Z,4.06
2022-10-23T02:00:05.893Z,4.53
2022-10-23T02:01:00.172Z,4.26
2022-10-23T02:01:52.171Z,3.94
2022-10-23T02:02:40.789Z,4.12
2022-10-23T02:03:31.577Z,4.15
2022-10-23T02:04:26.394Z,3.95
2022-10-23T02:05:17.641Z,4.18
2022-10-23T02:06:04.390Z,3.98
2022-10-23T02:06:51.065Z,4.04
2022-10-23T02:07:38.266Z,4.12
2022-10-23T02:08:25.639Z,4.22
2022-10-23T02:09:12.211Z,3.90
2022-10-23T02:09:58.933Z,3.91
2022-10-23T02:10:54.777Z,3.81
2022-10-23T02:11:50.683Z,4.29
2022-10-23T02:12:46.318Z,4.18
2022-10-23T02:13:38.794Z,3.89
2022-10-23T02:14:45.696Z,3.82
2022-10-23T02:15:37.287Z,3.63
2022-10-23T02:16:23.886Z,3.87
2022-10-23T02:17:42.572Z,4.03
2022-10-23T02:18:46.268Z,3.82
2022-10-23T02:19:47.413Z,4.06
2022-10-23T02:20:33.810Z,4.01
2022-10-23T02:21:46.572Z,3.94
2022-10-23T02:22:46.244Z,3.82
2022-10-23T02:23:37.282Z,3.66
2022-10-23T02:24:32.502Z,3.89
2022-10-23T02:25:25.453Z,4.02
2022-10-23T02:26:17.130Z,4.35
2022-10-23T02:27:13.754Z,4.60
2022-10-23T02:28:05.920Z,3.75
2022-10-23T02:30:05.089Z,3.85
2022-10-23T02:30:53.652Z,3.81
2022-10-23T02:31:40.314Z,3.68
2022-10-23T02:32:28.882Z,3.51
2022-10-23T02:33:17.205Z,3.85
2022-10-23T02:34:03.936Z,3.97
2022-10-23T02:34:50.402Z,3.88
2022-10-23T02:35:37.802Z,3.66
2022-10-23T02:36:39.178Z,3.65
2022-10-23T02:37:25.733Z,3.58
2022-10-23T02:38:31.261Z,3.78
2022-10-23T02:39:17.689Z,3.68
2022-10-23T02:40:05.410Z,4.11
2022-10-23T02:41:18.392Z,4.06
2022-10-23T02:42:24.731Z,3.88
2022-10-23T02:43:20.886Z,4.10
2022-10-23T02:44:13.059Z,3.86
2022-10-23T02:45:06.616Z,3.63
2022-10-23T02:45:52.983Z,4.02
2022-10-23T02:46:57.924Z,3.79
2022-10-23T02:48:01.510Z,3.75
2022-10-23T02:49:09.631Z,3.70
2022-10-23T02:50:05.162Z,3.68
2022-10-23T02:50:51.662Z,3.55
2022-10-23T02:51:52.760Z,3.80
2022-10-23T02:52:53.165Z,3.42
2022-10-23T02:55:10.405Z,3.31
2022-10-23T02:56:15.521Z,3.64
2022-10-23T02:57:23.901Z,3.65
2022-10-23T02:58:17.205Z,4.10
2022-10-23T02:59:31.092Z,3.86
2022-10-23T03:00:19.598Z,4.00
2022-10-23T03:01:10.469Z,3.82
2022-10-23T03:02:15.232Z,3.82
2022-10-23T03:03:14.498Z,3.51
2022-10-23T03:04:04.502Z,4.13
2022-10-23T03:04:54.187Z,3.94
2022-10-23T03:05:41.523Z,3.67
2022-10-23T03:06:27.990Z,3.83
2022-10-23T03:07:19.292Z,3.91
2022-10-23T03:08:08.435Z,3.67
2022-10-23T03:09:00.154Z,3.41
2022-10-23T03:09:46.809Z,3.00
2022-10-23T03:10:34.135Z,2.76
2022-10-23T03:11:20.933Z,3.30
2022-10-23T03:12:08.960Z,3.76
2022-10-23T03:12:56.369Z,3.50
2022-10-23T03:13:43.614Z,3.36
2022-10-23T03:14:30.276Z,3.26
2022-10-23T03:15:17.118Z,3.08
2022-10-23T03:16:03.616Z,3.33
2022-10-23T03:16:50.281Z,3.28
2022-10-23T03:17:36.712Z,3.48
2022-10-23T03:18:23.632Z,3.54
2022-10-23T03:20:00.191Z,3.47
2022-10-23T03:20:46.647Z,3.20
2022-10-23T03:21:34.423Z,3.47
2022-10-23T03:22:22.684Z,3.41
2022-10-23T03:23:11.767Z,3.50
2022-10-23T03:23:58.160Z,3.59
2022-10-23T03:24:54.305Z,3.36
2022-10-23T03:25:41.252Z,3.50
2022-10-23T03:26:27.633Z,3.22
2022-10-23T03:27:14.706Z,3.35
2022-10-23T03:28:01.132Z,3.72
2022-10-23T03:28:47.620Z,3.70
2022-10-23T03:29:35.602Z,3.56
2022-10-23T03:30:22.035Z,3.18
2022-10-23T03:31:13.313Z,3.35
2022-10-23T03:31:59.775Z,3.49
2022-10-23T03:32:46.323Z,3.48
2022-10-23T03:33:32.873Z,3.00
2022-10-23T03:34:27.149Z,3.17
2022-10-23T03:35:13.562Z,3.40
2022-10-23T03:36:00.007Z,3.51
2022-10-23T03:36:46.706Z,3.04
2022-10-23T03:37:34.385Z,3.45
2022-10-23T03:38:21.778Z,3.47
2022-10-23T03:39:08.243Z,3.26
2022-10-23T03:39:54.616Z,3.37
2022-10-23T03:40:42.449Z,3.32
2022-10-23T03:41:29.126Z,3.09
2022-10-23T03:42:16.538Z,3.49
2022-10-23T03:43:03.345Z,3.16
2022-10-23T03:43:49.783Z,3.34
2022-10-23T03:44:36.253Z,2.88
2022-10-23T03:45:23.688Z,3.04
2022-10-23T03:46:12.724Z,3.44
2022-10-23T03:46:59.162Z,3.31
2022-10-23T03:47:46.436Z,3.00
2022-10-23T03:48:33.480Z,2.80
2022-10-23T03:49:19.924Z,3.11
2022-10-23T03:50:07.780Z,3.10
2022-10-23T03:50:54.325Z,3.00
2022-10-23T03:51:41.742Z,3.14
2022-10-23T03:52:28.220Z,3.37
2022-10-23T03:53:14.676Z,3.01
2022-10-23T03:54:01.121Z,3.34
2022-10-23T03:54:47.605Z,2.93
2022-10-23T03:55:36.128Z,3.20
2022-10-23T03:56:22.612Z,3.32
2022-10-23T03:57:09.171Z,3.30
2022-10-23T03:57:55.587Z,3.05
2022-10-23T03:58:42.696Z,3.14
2022-10-23T03:59:29.731Z,3.49
2022-10-23T04:00:18.511Z,3.29
2022-10-23T04:01:09.553Z,3.17
2022-10-23T04:01:56.949Z,3.32
2022-10-23T04:02:45.458Z,3.64
2022-10-23T04:03:32.254Z,3.06
2022-10-23T04:04:18.726Z,3.04
2022-10-23T04:05:05.485Z,2.95
2022-10-23T04:05:53.143Z,3.32
2022-10-23T04:06:42.045Z,3.25
2022-10-23T04:07:28.460Z,3.46
2022-10-23T04:08:17.683Z,3.16
2022-10-23T04:09:09.355Z,2.86
2022-10-23T04:09:55.876Z,3.05
2022-10-23T04:10:43.528Z,2.96
2022-10-23T04:11:30.514Z,3.26
2022-10-23T04:12:17.591Z,3.14
2022-10-23T04:13:04.237Z,2.89
2022-10-23T04:13:54.788Z,2.86
2022-10-23T04:14:42.428Z,3.42
2022-10-23T04:15:28.940Z,3.40
2022-10-23T04:16:15.632Z,3.52
2022-10-23T04:17:04.040Z,3.52
2022-10-23T04:17:50.548Z,3.48
2022-10-23T04:18:37.060Z,3.33
2022-10-23T04:19:23.755Z,3.22
2022-10-23T04:20:10.342Z,3.31
2022-10-23T04:20:56.767Z,3.20
2022-10-23T04:21:43.603Z,3.57
2022-10-23T04:22:31.758Z,3.22
2022-10-23T04:23:18.655Z,2.96
2022-10-23T04:24:06.580Z,3.30
2022-10-23T04:24:52.968Z,3.21
2022-10-23T04:25:39.439Z,3.06
2022-10-23T04:26:25.876Z,3.23
2022-10-23T04:27:12.598Z,3.26
2022-10-23T04:27:59.039Z,3.33
2022-10-23T04:28:45.464Z,3.34
2022-10-23T04:29:32.470Z,3.37
2022-10-23T04:30:18.874Z,2.99
2022-10-23T04:31:06.873Z,2.99
2022-10-23T04:31:53.375Z,3.40
2022-10-23T04:32:39.874Z,3.41
2022-10-23T04:33:26.398Z,3.19
2022-10-23T04:34:12.810Z,3.38
2022-10-23T04:34:59.378Z,3.39
2022-10-23T04:35:45.865Z,3.17
2022-10-23T04:36:32.307Z,2.70
2022-10-23T04:37:26.633Z,2.96
2022-10-23T04:38:13.077Z,3.30
2022-10-23T04:38:59.635Z,3.65
2022-10-23T04:39:46.506Z,3.14
2022-10-23T04:40:34.241Z,3.23
2022-10-23T04:41:20.652Z,3.99
2022-10-23T04:42:07.427Z,3.74
2022-10-23T04:42:54.726Z,3.37
2022-10-23T04:43:41.491Z,3.20
2022-10-23T04:44:28.011Z,3.41
2022-10-23T04:45:14.393Z,3.93
2022-10-23T04:46:02.240Z,3.79
2022-10-23T04:46:48.713Z,3.89
2022-10-23T04:47:35.215Z,3.59
2022-10-23T04:48:25.552Z,3.51
2022-10-23T04:49:44.020Z,3.64
2022-10-23T04:50:38.840Z,3.81
2022-10-23T04:51:29.599Z,3.61
2022-10-23T04:52:25.198Z,3.89
2022-10-23T04:53:31.110Z,3.91
2022-10-23T04:54:35.602Z,3.91
2022-10-23T04:55:38.445Z,3.94
2022-10-23T04:56:34.640Z,3.67
2022-10-23T04:57:27.879Z,3.72
2022-10-23T04:58:24.486Z,3.59
2022-10-23T04:59:11.013Z,3.82
2022-10-23T04:59:59.298Z,4.03
2022-10-23T05:00:46.091Z,3.89
2022-10-23T05:01:38.885Z,3.92
2022-10-23T05:02:27.810Z,3.67
2022-10-23T05:03:15.661Z,3.94
2022-10-23T05:04:02.224Z,3.80
2022-10-23T05:04:49.232Z,3.37
2022-10-23T05:05:58.709Z,3.48
2022-10-23T05:07:04.927Z,3.74
2022-10-23T05:08:05.646Z,3.45
2022-10-23T05:08:59.304Z,3.68
2022-10-23T05:10:15.403Z,3.81
2022-10-23T05:11:07.765Z,3.19
2022-10-23T05:11:59.419Z,3.71
2022-10-23T05:12:45.902Z,3.85
2022-10-23T05:13:32.295Z,3.47
2022-10-23T05:14:21.998Z,3.22
2022-10-23T05:15:09.544Z,3.14
2022-10-23T05:15:58.428Z,3.60
2022-10-23T05:16:59.686Z,3.87
2022-10-23T05:17:50.768Z,3.57
2022-10-23T05:18:47.965Z,3.32
2022-10-23T05:19:40.118Z,3.41
2022-10-23T05:20:28.889Z,3.36
2022-10-23T05:21:21.955Z,2.89
2022-10-23T05:22:11.420Z,2.98
2022-10-23T05:23:14.460Z,2.92
2022-10-23T05:24:13.340Z,2.99
2022-10-23T05:25:07.587Z,2.98
2022-10-23T05:25:54.155Z,2.84
2022-10-23T05:26:41.496Z,2.84
2022-10-23T05:27:28.055Z,2.97
2022-10-23T05:28:15.806Z,2.97
2022-10-23T05:29:03.416Z,2.99
2022-10-23T05:29:49.861Z,2.88
2022-10-23T05:30:39.684Z,3.29
2022-10-23T05:31:26.292Z,3.16
2022-10-23T05:32:17.059Z,2.88
2022-10-23T05:33:03.981Z,2.71
2022-10-23T05:33:56.828Z,3.26
2022-10-23T05:34:43.450Z,3.20
2022-10-23T05:35:31.330Z,3.29
2022-10-23T05:36:18.245Z,2.99
2022-10-23T05:37:08.356Z,2.64
2022-10-23T05:37:59.365Z,2.73
2022-10-23T05:38:46.528Z,2.84
2022-10-23T05:39:36.714Z,3.08
2022-10-23T05:40:27.831Z,3.05
2022-10-23T05:41:19.852Z,2.94
2022-10-23T05:42:06.249Z,2.86
2022-10-23T05:42:52.667Z,3.19
2022-10-23T05:43:46.376Z,2.94
2022-10-23T05:44:51.160Z,2.95
2022-10-23T05:45:44.671Z,3.11
2022-10-23T05:46:40.992Z,3.19
2022-10-23T05:47:39.968Z,2.99
2022-10-23T05:48:35.732Z,2.75
2022-10-23T05:49:28.303Z,2.87
2022-10-23T05:50:35.921Z,3.11
2022-10-23T05:51:40.895Z,2.89
2022-10-23T05:52:42.632Z,2.71
2022-10-23T05:53:46.403Z,3.08
2022-10-23T05:54:51.668Z,2.91
2022-10-23T05:55:55.704Z,3.01
2022-10-23T05:57:04.288Z,3.10
2022-10-23T05:57:53.275Z,3.09
2022-10-23T05:58:51.300Z,3.16
2022-10-23T06:00:00.683Z,3.13
2022-10-23T06:00:56.013Z,3.16
2022-10-23T06:02:01.355Z,3.03
2022-10-23T06:03:06.040Z,2.92
2022-10-23T06:04:00.651Z,2.87
2022-10-23T06:05:03.203Z,3.02
2022-10-23T06:06:08.292Z,3.01
2022-10-23T06:07:03.851Z,2.92
2022-10-23T06:07:50.968Z,3.14
2022-10-23T06:08:38.689Z,3.12
2022-10-23T06:09:25.106Z,3.14
2022-10-23T06:10:16.927Z,3.07
2022-10-23T06:11:07.403Z,2.99
2022-10-23T06:11:53.884Z,3.17
2022-10-23T06:12:42.384Z,3.43
2022-10-23T06:13:32.968Z,3.65
2022-10-23T06:14:19.619Z,3.78
2022-10-23T06:15:10.351Z,3.77
2022-10-23T06:16:19.763Z,3.70
2022-10-23T06:17:06.292Z,3.38
2022-10-23T06:18:02.784Z,3.22
2022-10-23T06:18:52.442Z,3.12
2022-10-23T06:19:38.991Z,3.38
2022-10-23T06:20:27.949Z,3.99
2022-10-23T06:21:24.770Z,3.87
2022-10-23T06:22:12.436Z,4.43
2022-10-23T06:23:18.596Z,4.22
2022-10-23T06:24:22.718Z,4.17
2022-10-23T06:25:14.319Z,4.61
2022-10-23T06:26:00.841Z,4.22
2022-10-23T06:27:10.210Z,3.97
2022-10-23T06:28:01.015Z,4.10
2022-10-23T06:28:47.522Z,3.71
2022-10-23T06:29:34.257Z,3.95
2022-10-23T06:30:20.895Z,3.43
2022-10-23T06:31:11.486Z,3.43
2022-10-23T06:31:58.830Z,3.71
2022-10-23T06:32:45.692Z,3.79
2022-10-23T06:33:32.363Z,3.71
2022-10-23T06:34:18.871Z,3.94
2022-10-23T06:35:06.286Z,3.55
2022-10-23T06:35:57.262Z,3.42
2022-10-23T06:36:44.853Z,3.54
2022-10-23T06:37:50.174Z,4.21
2022-10-23T06:38:46.420Z,3.96
2022-10-23T06:39:33.187Z,3.89
2022-10-23T06:40:29.369Z,3.57
2022-10-23T06:41:22.107Z,3.08
2022-10-23T06:42:14.059Z,3.58
2022-10-23T06:43:15.306Z,3.37
2022-10-23T06:44:21.704Z,3.08
2022-10-23T06:45:13.420Z,3.40
2022-10-23T06:46:05.557Z,3.37
2022-10-23T06:47:15.218Z,3.55
2022-10-23T06:48:36.696Z,3.14
2022-10-23T06:49:27.835Z,3.52
2022-10-23T06:50:17.563Z,3.35
2022-10-23T06:51:06.774Z,3.39
2022-10-23T06:51:59.139Z,3.16
2022-10-23T06:52:47.689Z,2.86
2022-10-23T06:53:36.880Z,3.05
2022-10-23T06:54:49.464Z,3.12
2022-10-23T06:55:42.381Z,3.17
2022-10-23T06:56:30.272Z,3.11
2022-10-23T06:57:17.289Z,3.04
2022-10-23T06:58:10.480Z,3.02
2022-10-23T06:59:07.921Z,3.02
2022-10-23T06:59:54.324Z,3.01
2022-10-23T07:00:41.184Z,2.91
2022-10-23T07:01:28.015Z,2.99
2022-10-23T07:02:15.499Z,2.96
2022-10-23T07:03:01.915Z,2.90
2022-10-23T07:03:50.883Z,2.69
2022-10-23T07:04:41.808Z,2.71
2022-10-23T07:05:36.399Z,2.78
2022-10-23T07:06:22.893Z,2.52
2022-10-23T07:07:09.270Z,2.53
2022-10-23T07:08:06.732Z,2.72
2022-10-23T07:08:59.449Z,2.56
2022-10-23T07:10:26.914Z,2.75
2022-10-23T07:11:17.734Z,2.71
2022-10-23T07:12:06.802Z,2.85
2022-10-23T07:13:03.149Z,2.93
2022-10-23T07:13:49.610Z,2.88
2022-10-23T07:14:37.722Z,2.56
2022-10-23T07:15:24.382Z,2.57
2022-10-23T07:16:15.618Z,2.99
2022-10-23T07:17:02.010Z,2.72
2022-10-23T07:17:49.151Z,2.88
2022-10-23T07:19:58.752Z,2.81
2022-10-23T07:20:48.102Z,2.62
2022-10-23T07:21:35.067Z,2.44
2022-10-23T07:22:50.131Z,2.85
2022-10-23T07:23:42.843Z,5.57
2022-10-23T07:24:31.343Z,6.90
2022-10-23T07:25:20.903Z,4.21
2022-10-23T07:26:14.201Z,3.67
2022-10-23T07:27:00.965Z,3.69
2022-10-23T07:27:48.848Z,3.73
2022-10-23T07:28:37.719Z,3.43
2022-10-23T07:29:24.417Z,3.22
2022-10-23T07:30:11.683Z,3.32
2022-10-23T07:31:05.628Z,3.28
2022-10-23T07:32:12.009Z,3.76
2022-10-23T07:33:17.074Z,3.95
2022-10-23T07:34:14.112Z,3.51
2022-10-23T07:35:01.914Z,3.48
2022-10-23T07:35:51.541Z,2.80
2022-10-23T07:36:44.323Z,3.04
2022-10-23T07:37:30.702Z,2.97
2022-10-23T07:38:29.047Z,2.97
2022-10-23T07:39:15.711Z,3.03
2022-10-23T07:40:09.062Z,3.15
2022-10-23T07:41:02.529Z,2.74
2022-10-23T07:41:49.172Z,2.86
2022-10-23T07:42:38.806Z,3.04
2022-10-23T07:43:26.105Z,2.64
2022-10-23T07:44:12.585Z,2.89
2022-10-23T07:44:59.225Z,3.02
2022-10-23T07:45:49.608Z,2.93
2022-10-23T07:46:43.118Z,2.85
2022-10-23T07:47:29.607Z,2.99
2022-10-23T07:48:16.443Z,2.35
2022-10-23T07:49:17.659Z,2.71
2022-10-23T07:50:04.271Z,2.63
2022-10-23T07:50:51.346Z,2.53
2022-10-23T07:51:37.828Z,2.61
2022-10-23T07:52:24.334Z,2.68
2022-10-23T07:53:29.490Z,2.99
2022-10-23T07:54:21.545Z,2.77
2022-10-23T07:55:31.196Z,2.73
2022-10-23T07:56:31.365Z,2.59
2022-10-23T07:57:39.246Z,2.51
2022-10-23T07:58:37.909Z,2.70
2022-10-23T07:59:33.389Z,2.75
2022-10-23T08:00:26.149Z,2.90
2022-10-23T08:01:30.009Z,3.05
2022-10-23T08:02:17.712Z,2.77
2022-10-23T08:03:04.618Z,2.64
2022-10-23T08:03:52.381Z,2.61
2022-10-23T08:04:38.776Z,2.93
2022-10-23T08:05:34.719Z,2.94
2022-10-23T08:06:23.065Z,2.79
2022-10-23T08:07:10.083Z,2.55
2022-10-23T08:08:01.160Z,2.54
2022-10-23T08:08:48.433Z,2.62
2022-10-23T08:09:36.368Z,2.82
2022-10-23T08:10:22.988Z,2.74
2022-10-23T08:11:10.913Z,2.99
2022-10-23T08:12:06.766Z,2.87
2022-10-23T08:12:53.127Z,2.61
2022-10-23T08:13:46.591Z,2.66
2022-10-23T08:14:33.118Z,2.67
2022-10-23T08:15:20.792Z,2.83
2022-10-23T08:16:13.401Z,2.85
2022-10-23T08:17:34.768Z,2.74
2022-10-23T08:18:42.654Z,2.89
2022-10-23T08:19:29.191Z,2.82
2022-10-23T08:20:16.188Z,2.69
2022-10-23T08:21:04.646Z,2.70
2022-10-23T08:21:54.656Z,2.66
2022-10-23T08:22:41.498Z,2.40
2022-10-23T08:23:29.169Z,2.34
2022-10-23T08:24:15.659Z,2.70
2022-10-23T08:25:05.200Z,2.56
2022-10-23T08:25:56.392Z,2.68
2022-10-23T08:26:44.388Z,2.46
2022-10-23T08:27:33.988Z,2.71
2022-10-23T08:28:20.499Z,2.77
2022-10-23T08:29:13.761Z,2.61
2022-10-23T08:30:00.863Z,2.81
2022-10-23T08:30:47.486Z,2.63
2022-10-23T08:31:34.041Z,2.67
2022-10-23T08:32:36.008Z,2.17
2022-10-23T08:33:23.745Z,2.23
2022-10-23T08:34:10.385Z,2.60
2022-10-23T08:34:57.162Z,2.60
2022-10-23T08:35:44.819Z,2.50
2022-10-23T08:36:31.194Z,2.49
2022-10-23T08:37:17.628Z,2.61
2022-10-23T08:38:04.712Z,2.57
2022-10-23T08:38:55.329Z,2.89
2022-10-23T08:39:42.442Z,2.82
2022-10-23T08:40:38.672Z,2.96
2022-10-23T08:41:48.010Z,2.57
2022-10-23T08:42:38.355Z,2.50
2022-10-23T08:43:32.910Z,3.09
2022-10-23T08:44:34.093Z,3.01
2022-10-23T08:45:40.696Z,2.77
2022-10-23T08:46:41.859Z,3.02
2022-10-23T08:47:58.440Z,2.80
2022-10-23T08:49:22.694Z,2.58
2022-10-23T08:50:25.396Z,2.33
2022-10-23T08:51:16.799Z,2.25
2022-10-23T08:52:10.378Z,2.53
2022-10-23T08:53:02.547Z,2.56
2022-10-23T08:54:06.620Z,2.49
2022-10-23T08:54:58.296Z,2.50
2022-10-23T08:55:47.071Z,2.60
2022-10-23T08:56:35.432Z,2.38
2022-10-23T08:57:23.972Z,2.70
2022-10-23T08:58:15.963Z,2.25
2022-10-23T08:59:20.349Z,2.62
2022-10-23T09:00:08.505Z,2.67
2022-10-23T09:00:59.078Z,2.47
2022-10-23T09:02:08.355Z,2.51
2022-10-23T09:02:55.517Z,2.37
2022-10-23T09:03:43.363Z,2.42
2022-10-23T09:04:30.513Z,3.05
2022-10-23T09:05:25.475Z,2.75
2022-10-23T09:06:19.913Z,2.61
2022-10-23T09:07:26.438Z,2.62
2022-10-23T09:08:28.828Z,2.46
2022-10-23T09:09:33.725Z,2.69
2022-10-23T09:10:35.724Z,2.40
2022-10-23T09:11:31.621Z,2.37
2022-10-23T09:12:22.059Z,2.55
2022-10-23T09:13:22.135Z,2.27
2022-10-23T09:14:30.252Z,2.23
2022-10-23T09:15:31.023Z,2.45
2022-10-23T09:16:26.515Z,2.50
2022-10-23T09:17:20.698Z,2.52
2022-10-23T09:18:12.694Z,2.17
2022-10-23T09:18:59.543Z,2.26
2022-10-23T09:19:46.312Z,2.43
2022-10-23T09:20:36.978Z,2.60
2022-10-23T09:21:29.937Z,2.57
2022-10-23T09:22:16.457Z,2.63
2022-10-23T09:23:15.230Z,2.58
2022-10-23T09:24:01.613Z,2.42
2022-10-23T09:24:52.925Z,2.57
2022-10-23T09:25:41.978Z,2.71
2022-10-23T09:26:28.612Z,2.79
2022-10-23T09:27:16.914Z,2.53
2022-10-23T09:28:05.636Z,2.28
2022-10-23T09:29:12.243Z,2.27
2022-10-23T09:29:59.310Z,2.79
2022-10-23T09:30:45.703Z,2.39
2022-10-23T09:31:32.241Z,2.41
2022-10-23T09:32:20.029Z,2.19
2022-10-23T09:33:23.469Z,2.29
2022-10-23T09:34:19.106Z,2.25
2022-10-23T09:35:06.013Z,2.23
2022-10-23T09:36:03.590Z,2.53
2022-10-23T09:36:58.227Z,2.81
2022-10-23T09:37:48.761Z,2.52
2022-10-23T09:38:37.250Z,2.29
2022-10-23T09:39:26.416Z,2.39
2022-10-23T09:40:18.844Z,2.29
2022-10-23T09:41:13.992Z,2.25
2022-10-23T09:42:02.394Z,2.39
2022-10-23T09:42:53.760Z,2.45
2022-10-23T09:43:40.263Z,2.15
2022-10-23T09:44:29.654Z,2.13
2022-10-23T09:45:25.567Z,2.07
2022-10-23T09:46:13.798Z,2.19
2022-10-23T09:47:06.078Z,2.02
2022-10-23T09:48:03.314Z,2.07
2022-10-23T09:48:59.842Z,2.41
2022-10-23T09:49:50.435Z,2.32
2022-10-23T09:50:37.274Z,2.28
2022-10-23T09:51:23.972Z,2.03
2022-10-23T09:52:10.300Z,2.21
2022-10-23T09:52:56.996Z,2.35
2022-10-23T09:53:52.470Z,2.18
2022-10-23T09:54:45.039Z,2.05
2022-10-23T09:55:31.518Z,2.30
2022-10-23T09:56:26.910Z,2.16
2022-10-23T09:57:26.435Z,2.30
2022-10-23T09:58:28.881Z,2.35
2022-10-23T09:59:15.225Z,2.22
2022-10-23T10:00:04.051Z,2.23
2022-10-23T10:00:58.250Z,2.22
2022-10-23T10:02:04.811Z,2.02
2022-10-23T10:03:19.521Z,2.17
2022-10-23T10:04:17.906Z,2.47
2022-10-23T10:05:23.479Z,2.33
2022-10-23T10:06:27.125Z,2.53
2022-10-23T10:07:39.878Z,2.31
2022-10-23T10:08:38.212Z,2.21
2022-10-23T10:09:24.812Z,2.31
2022-10-23T10:10:15.428Z,2.13
2022-10-23T10:11:14.170Z,2.14
2022-10-23T10:12:18.848Z,2.32
2022-10-23T10:13:27.985Z,2.26
2022-10-23T10:14:33.198Z,2.23
2022-10-23T10:15:27.560Z,2.17
2022-10-23T10:16:27.460Z,2.37
2022-10-23T10:17:32.334Z,2.09
2022-10-23T10:18:35.842Z,2.24
2022-10-23T10:19:22.842Z,2.31
2022-10-23T10:20:19.784Z,2.13
2022-10-23T10:21:15.187Z,2.08
2022-10-23T10:22:13.808Z,2.02
2022-10-23T10:23:00.175Z,2.25
2022-10-23T10:24:05.064Z,2.25
2022-10-23T10:24:58.914Z,2.22
2022-10-23T10:25:49.769Z,1.89
2022-10-23T10:26:52.978Z,2.03
2022-10-23T10:27:39.318Z,2.29
2022-10-23T10:28:38.549Z,2.32
2022-10-23T10:29:43.624Z,2.27
2022-10-23T10:30:38.079Z,2.23
2022-10-23T10:31:33.684Z,2.21
2022-10-23T10:32:38.579Z,2.23
2022-10-23T10:33:32.077Z,2.08
2022-10-23T10:34:28.827Z,2.02
2022-10-23T10:35:34.146Z,1.87
2022-10-23T10:36:40.796Z,2.37
2022-10-23T10:37:49.308Z,2.04
2022-10-23T10:38:50.126Z,1.98
2022-10-23T10:39:54.618Z,2.05
2022-10-23T10:41:12.391Z,2.13
2022-10-23T10:42:18.732Z,1.90
2022-10-23T10:43:14.135Z,2.04
2022-10-23T10:44:24.158Z,1.98
2022-10-23T10:45:13.575Z,2.11
2022-10-23T10:46:07.046Z,2.47
2022-10-23T10:46:59.835Z,2.22
2022-10-23T10:48:03.417Z,1.82
2022-10-23T10:49:10.462Z,1.84
2022-10-23T10:50:02.574Z,2.20
2022-10-23T10:51:03.335Z,2.08
2022-10-23T10:52:13.164Z,1.95
2022-10-23T10:53:17.628Z,2.10
2022-10-23T10:54:14.145Z,1.94
2022-10-23T10:55:15.619Z,1.95
2022-10-23T10:56:04.473Z,2.06
2022-10-23T10:56:51.197Z,2.03
2022-10-23T10:57:44.259Z,2.02
2022-10-23T10:58:30.767Z,2.16
2022-10-23T10:59:17.471Z,2.08
2022-10-23T11:00:24.138Z,1.95
2022-10-23T11:01:19.404Z,1.91
2022-10-23T11:02:16.170Z,2.03
2022-10-23T11:03:24.040Z,1.93
2022-10-23T11:04:22.371Z,2.20
2022-10-23T11:05:27.599Z,2.44
2022-10-23T11:06:18.184Z,2.13
2022-10-23T11:07:12.041Z,2.01
2022-10-23T11:08:09.434Z,2.19
2022-10-23T11:09:19.430Z,2.25
2022-10-23T11:10:15.358Z,2.02
2022-10-23T11:11:08.068Z,1.91
2022-10-23T11:11:54.465Z,1.88
2022-10-23T11:12:43.982Z,2.11
2022-10-23T11:13:35.299Z,1.82
2022-10-23T11:14:31.639Z,2.07
2022-10-23T11:15:22.376Z,2.15
2022-10-23T11:16:13.683Z,1.99
2022-10-23T11:17:05.828Z,2.25
2022-10-23T11:17:58.296Z,1.97
2022-10-23T11:18:53.287Z,2.11
2022-10-23T11:19:42.382Z,2.12
2022-10-23T11:20:55.880Z,1.88
2022-10-23T11:21:47.074Z,2.08
2022-10-23T11:22:37.783Z,2.28
2022-10-23T11:23:39.796Z,2.01
2022-10-23T11:24:29.458Z,2.16
2022-10-23T11:25:18.664Z,2.17
2022-10-23T11:26:20.072Z,2.12
2022-10-23T11:27:27.400Z,1.98
2022-10-23T11:28:32.593Z,1.88
2022-10-23T11:29:38.274Z,2.18
2022-10-23T11:30:24.656Z,1.99
2022-10-23T11:31:14.049Z,1.81
2022-10-23T11:32:19.130Z,2.09
2022-10-23T11:33:26.451Z,2.24
2022-10-23T11:34:12.756Z,2.52
2022-10-23T11:35:02.176Z,2.09
2022-10-23T11:36:05.849Z,2.07
2022-10-23T11:36:57.927Z,1.89
2022-10-23T11:37:44.754Z,2.08
2022-10-23T11:38:34.228Z,1.95
2022-10-23T11:39:21.081Z,1.94
2022-10-23T11:40:07.399Z,2.28
2022-10-23T11:40:57.016Z,2.14
2022-10-23T11:41:51.840Z,1.83
2022-10-23T11:42:41.276Z,2.15
2022-10-23T11:43:46.451Z,2.25